createdAt,value
2023-03-21T00:00:11.395Z,70.63
2023-03-21T00:02:34.984Z,70.50
2023-03-21T00:05:09.470Z,71.45
2023-03-21T00:07:39.040Z,70.88
2023-03-21T00:10:14.393Z,70.51
2023-03-21T00:12:39.316Z,70.71
2023-03-21T00:15:05.781Z,70.04
2023-03-21T00:17:32.594Z,70.65
2023-03-21T00:19:56.246Z,70.90
2023-03-21T00:22:21.384Z,69.93
2023-03-21T00:24:45.539Z,70.28
2023-03-21T00:27:42.654Z,69.82
2023-03-21T00:29:52.960Z,69.82
2023-03-21T00:32:16.771Z,70.24
2023-03-21T00:34:57.661Z,69.62
2023-03-21T00:37:28.376Z,70.29
2023-03-21T00:39:52.089Z,69.92
2023-03-21T00:42:15.964Z,70.01
2023-03-21T00:44:40.318Z,69.33
2023-03-21T00:47:07.856Z,70.05
2023-03-21T00:49:33.741Z,69.24
2023-03-21T00:52:08.653Z,69.24
2023-03-21T00:54:40.353Z,70.27
2023-03-21T00:57:06.122Z,70.14
2023-03-21T00:59:30.060Z,69.91
2023-03-21T01:01:54.015Z,69.73
2023-03-21T01:04:18.173Z,70.15
2023-03-21T01:06:43.174Z,70.12
2023-03-21T01:09:08.071Z,70.42
2023-03-21T01:11:34.777Z,70.56
2023-03-21T01:14:14.822Z,72.03
2023-03-21T01:16:43.200Z,71.24
2023-03-21T01:19:18.271Z,71.62
2023-03-21T01:21:48.222Z,72.11
2023-03-21T01:24:12.325Z,71.72
2023-03-21T01:26:37.779Z,71.95
2023-03-21T01:29:01.627Z,71.64
2023-03-21T01:31:25.521Z,71.69
2023-03-21T01:33:49.183Z,72.11
2023-03-21T01:36:21.076Z,72.28
2023-03-21T01:38:47.703Z,72.34
2023-03-21T01:41:22.086Z,72.30
2023-03-21T01:43:50.074Z,71.96
2023-03-21T01:46:47.728Z,72.14
2023-03-21T01:49:40.312Z,71.51
2023-03-21T01:52:26.494Z,71.73
2023-03-21T01:54:55.857Z,71.70
2023-03-21T01:57:27.831Z,71.86
2023-03-21T01:59:59.103Z,72.29
2023-03-21T02:02:58.149Z,71.58
2023-03-21T02:05:55.318Z,72.29
2023-03-21T02:08:25.899Z,71.96
2023-03-21T02:11:02.356Z,72.14
2023-03-21T02:13:36.494Z,72.26
2023-03-21T02:16:15.581Z,71.89
2023-03-21T02:18:52.553Z,72.15
2023-03-21T02:21:56.385Z,71.84
2023-03-21T02:25:06.155Z,71.16
2023-03-21T02:27:40.364Z,71.26
2023-03-21T02:30:51.177Z,71.33
2023-03-21T02:34:15.524Z,71.86
2023-03-21T02:36:59.389Z,72.20
2023-03-21T02:39:30.690Z,72.73
2023-03-21T02:42:02.670Z,73.96
2023-03-21T02:44:38.314Z,73.96
2023-03-21T02:47:07.773Z,73.17
2023-03-21T02:49:43.276Z,73.45
2023-03-21T02:52:18.726Z,74.60
2023-03-21T02:54:49.142Z,73.22
2023-03-21T02:57:19.496Z,75.11
2023-03-21T02:59:54.300Z,75.66
2023-03-21T03:02:30.964Z,75.17
2023-03-21T03:04:55.584Z,74.63
2023-03-21T03:07:37.636Z,74.85
2023-03-21T03:10:16.267Z,75.50
2023-03-21T03:12:48.650Z,77.21
2023-03-21T03:15:28.350Z,76.05
2023-03-21T03:17:59.122Z,75.36
2023-03-21T03:20:37.056Z,76.48
2023-03-21T03:23:17.961Z,76.17
2023-03-21T03:25:46.273Z,75.90
2023-03-21T03:28:14.650Z,76.90
2023-03-21T03:30:46.522Z,77.07
2023-03-21T03:33:18.069Z,76.71
2023-03-21T03:35:44.837Z,76.84
2023-03-21T03:38:14.346Z,77.80
2023-03-21T03:40:42.592Z,79.66
2023-03-21T03:43:24.454Z,78.73
2023-03-21T03:45:55.230Z,80.07
2023-03-21T03:48:26.444Z,80.26
2023-03-21T03:51:01.477Z,81.34
2023-03-21T03:53:44.663Z,79.73
2023-03-21T03:56:11.771Z,81.19
2023-03-21T03:58:45.313Z,80.33
2023-03-21T04:01:12.582Z,80.53
2023-03-21T04:03:48.442Z,81.59
2023-03-21T04:06:13.723Z,79.60
2023-03-21T04:08:38.784Z,81.53
2023-03-21T04:11:04.985Z,82.38
2023-03-21T04:13:34.397Z,79.74
2023-03-21T04:16:01.690Z,82.25
2023-03-21T04:18:25.524Z,81.04
2023-03-21T04:20:51.285Z,82.30
2023-03-21T04:23:16.337Z,82.19
2023-03-21T04:25:53.922Z,81.35
2023-03-21T04:28:22.560Z,81.04
2023-03-21T04:31:03.575Z,80.48
2023-03-21T04:33:40.543Z,80.93
2023-03-21T04:36:06.662Z,80.96
2023-03-21T04:38:33.897Z,82.15
2023-03-21T04:41:00.128Z,82.70
2023-03-21T04:43:28.512Z,82.26
2023-03-21T04:45:53.777Z,83.98
2023-03-21T04:48:19.560Z,84.25
2023-03-21T04:50:43.380Z,83.21
2023-03-21T04:53:07.021Z,82.11
2023-03-21T04:55:32.524Z,85.00
2023-03-21T04:57:56.444Z,85.77
2023-03-21T05:00:23.125Z,86.71
2023-03-21T05:02:47.348Z,85.58
2023-03-21T05:05:12.244Z,86.28
2023-03-21T05:07:35.852Z,86.72
2023-03-21T05:10:01.849Z,85.62
2023-03-21T05:12:27.038Z,85.99
2023-03-21T05:14:51.214Z,87.94
2023-03-21T05:17:23.322Z,86.12
2023-03-21T05:19:48.018Z,85.39
2023-03-21T05:22:14.304Z,85.28
2023-03-21T05:24:39.433Z,85.12
2023-03-21T05:27:06.396Z,86.35
2023-03-21T05:29:37.319Z,86.70
2023-03-21T05:32:03.691Z,88.78
2023-03-21T05:34:28.956Z,87.28
2023-03-21T05:36:53.050Z,85.23
2023-03-21T05:39:18.122Z,85.95
2023-03-21T05:41:53.730Z,83.79
2023-03-21T05:44:17.509Z,84.08
2023-03-21T05:46:41.306Z,84.49
2023-03-21T05:49:05.678Z,85.31
2023-03-21T05:51:31.127Z,87.11
2023-03-21T05:53:54.837Z,87.97
2023-03-21T05:56:18.570Z,88.00
2023-03-21T05:58:52.809Z,89.17
2023-03-21T06:01:18.897Z,88.77
2023-03-21T06:03:50.533Z,87.61
2023-03-21T06:06:18.593Z,87.82
2023-03-21T06:08:54.453Z,86.16
2023-03-21T06:11:26.273Z,86.42
2023-03-21T06:14:05.657Z,87.56
2023-03-21T06:16:29.953Z,88.99
2023-03-21T06:18:53.621Z,88.96
2023-03-21T06:21:32.058Z,88.88
2023-03-21T06:23:57.241Z,88.29
2023-03-21T06:26:23.084Z,88.31
2023-03-21T06:28:48.495Z,87.52
2023-03-21T06:31:12.427Z,87.38
2023-03-21T06:33:36.210Z,86.74
2023-03-21T06:36:01.053Z,87.44
2023-03-21T06:38:26.561Z,88.44
2023-03-21T06:40:52.584Z,87.77
2023-03-21T06:43:18.076Z,87.58
2023-03-21T06:45:42.666Z,88.27
2023-03-21T06:48:09.451Z,88.45
2023-03-21T06:50:50.437Z,87.67
2023-03-21T06:53:15.379Z,87.96
2023-03-21T06:56:06.809Z,88.30
2023-03-21T06:58:32.073Z,89.21
2023-03-21T07:00:55.938Z,89.94
2023-03-21T07:03:20.066Z,88.44
2023-03-21T07:05:44.691Z,88.95
2023-03-21T07:08:10.629Z,90.38
2023-03-21T07:10:34.477Z,91.73
2023-03-21T07:13:04.194Z,92.03
2023-03-21T07:15:34.627Z,90.23
2023-03-21T07:17:58.367Z,90.07
2023-03-21T07:20:22.255Z,89.52
2023-03-21T07:22:45.985Z,90.90
2023-03-21T07:25:11.663Z,90.39
2023-03-21T07:27:37.740Z,90.36
2023-03-21T07:30:04.320Z,90.23
2023-03-21T07:32:30.092Z,89.59
2023-03-21T07:34:54.064Z,89.42
2023-03-21T07:37:17.806Z,91.61
2023-03-21T07:39:41.683Z,89.46
2023-03-21T07:42:05.802Z,89.03
2023-03-21T07:44:35.201Z,88.24
2023-03-21T07:47:01.550Z,89.30
2023-03-21T07:49:26.717Z,89.29
2023-03-21T07:51:50.443Z,88.94
2023-03-21T07:54:14.159Z,88.76
2023-03-21T07:56:37.969Z,88.49
2023-03-21T07:59:01.677Z,88.76
2023-03-21T08:01:25.653Z,88.45
2023-03-21T08:03:51.479Z,88.15
2023-03-21T08:06:15.726Z,90.10
2023-03-21T08:08:39.448Z,89.91
2023-03-21T08:11:03.309Z,87.74
2023-03-21T08:13:27.800Z,86.42
2023-03-21T08:15:51.489Z,86.61
2023-03-21T08:18:15.348Z,86.76
2023-03-21T08:20:41.319Z,86.32
2023-03-21T08:23:05.281Z,86.24
2023-03-21T08:25:29.096Z,87.67
2023-03-21T08:27:53.521Z,86.29
2023-03-21T08:30:20.960Z,86.34
2023-03-21T08:32:45.145Z,90.77
2023-03-21T08:35:11.521Z,90.11
2023-03-21T08:37:36.705Z,90.38
2023-03-21T08:40:00.454Z,87.94
2023-03-21T08:42:24.776Z,87.30
2023-03-21T08:44:48.452Z,91.03
2023-03-21T08:47:12.730Z,91.99
2023-03-21T08:49:37.121Z,91.98
2023-03-21T08:52:00.833Z,93.53
2023-03-21T08:54:25.958Z,93.19
2023-03-21T08:56:49.857Z,92.77
2023-03-21T08:59:13.587Z,89.96
2023-03-21T09:01:37.732Z,90.56
2023-03-21T09:04:01.462Z,90.42
2023-03-21T09:06:27.124Z,91.27
2023-03-21T09:08:52.890Z,88.40
2023-03-21T09:11:18.011Z,90.03
2023-03-21T09:13:41.790Z,90.77
2023-03-21T09:16:05.985Z,90.14
2023-03-21T09:18:44.739Z,89.40
2023-03-21T09:21:12.895Z,88.68
2023-03-21T09:23:37.871Z,88.29
2023-03-21T09:26:01.616Z,90.31
2023-03-21T09:28:27.647Z,91.28
2023-03-21T09:30:51.411Z,91.15
2023-03-21T09:33:25.551Z,90.02
2023-03-21T09:35:51.752Z,89.44
2023-03-21T09:38:16.039Z,88.68
2023-03-21T09:41:01.093Z,88.66
2023-03-21T09:43:47.759Z,88.71
2023-03-21T09:46:21.382Z,87.82
2023-03-21T09:48:57.420Z,87.48
2023-03-21T09:51:24.389Z,89.61
2023-03-21T09:53:51.938Z,90.79
2023-03-21T09:56:17.193Z,89.23
2023-03-21T09:58:47.041Z,87.91
2023-03-21T10:01:22.410Z,87.49
2023-03-21T10:03:47.588Z,87.69
2023-03-21T10:06:15.384Z,87.60
2023-03-21T10:08:42.126Z,87.33
2023-03-21T10:11:13.302Z,86.40
2023-03-21T10:13:43.907Z,87.06
2023-03-21T10:16:16.809Z,86.78
2023-03-21T10:18:42.570Z,86.47
2023-03-21T10:21:07.632Z,87.20
2023-03-21T10:23:32.008Z,85.44
2023-03-21T10:25:58.856Z,85.59
2023-03-21T10:28:27.600Z,85.16
2023-03-21T10:30:55.194Z,85.35
2023-03-21T10:33:22.609Z,85.38
2023-03-21T10:35:51.636Z,84.76
2023-03-21T10:38:19.613Z,84.22
2023-03-21T10:40:43.370Z,84.33
2023-03-21T10:43:34.034Z,87.09
2023-03-21T10:45:59.499Z,87.89
2023-03-21T10:48:25.121Z,86.24
2023-03-21T10:50:51.772Z,84.88
2023-03-21T10:53:20.973Z,85.18
2023-03-21T10:55:46.697Z,84.47
2023-03-21T10:58:19.038Z,84.16
2023-03-21T11:00:45.273Z,83.92
2023-03-21T11:03:23.841Z,84.04
2023-03-21T11:05:48.236Z,81.60
2023-03-21T11:08:17.056Z,82.98
2023-03-21T11:10:54.597Z,83.22
2023-03-21T11:13:21.958Z,83.71
2023-03-21T11:15:54.488Z,82.76
2023-03-21T11:18:22.126Z,81.70
2023-03-21T11:20:53.505Z,80.95
2023-03-21T11:23:20.382Z,81.89
2023-03-21T11:25:44.919Z,81.39
2023-03-21T11:28:15.023Z,80.80
2023-03-21T11:30:38.919Z,80.75
2023-03-21T11:33:06.261Z,81.22
2023-03-21T11:35:37.062Z,80.14
2023-03-21T11:38:01.195Z,79.74
2023-03-21T11:40:27.812Z,80.03
2023-03-21T11:42:53.475Z,80.64
2023-03-21T11:45:20.919Z,78.95
2023-03-21T11:47:45.934Z,78.78
2023-03-21T11:50:24.839Z,77.77
2023-03-21T11:53:07.392Z,78.74
2023-03-21T11:55:43.025Z,77.50
2023-03-21T11:58:24.647Z,78.65
2023-03-21T12:00:57.325Z,77.52
2023-03-21T12:03:49.181Z,78.73
2023-03-21T12:06:22.522Z,77.81
2023-03-21T12:08:59.124Z,78.83
2023-03-21T12:11:35.164Z,77.03
2023-03-21T12:14:07.336Z,78.09
2023-03-21T12:16:48.245Z,76.90
2023-03-21T12:19:30.739Z,76.96
2023-03-21T12:22:04.807Z,76.33
2023-03-21T12:24:39.056Z,76.06
2023-03-21T12:27:12.550Z,75.78
2023-03-21T12:29:54.559Z,74.63
2023-03-21T12:32:35.568Z,75.43
2023-03-21T12:35:32.994Z,74.95
2023-03-21T12:38:08.169Z,74.35
2023-03-21T12:40:52.319Z,75.03
2023-03-21T12:43:32.686Z,73.22
2023-03-21T12:46:01.511Z,73.95
2023-03-21T12:48:37.257Z,75.46
2023-03-21T12:51:04.115Z,74.25
2023-03-21T12:53:39.146Z,74.07
2023-03-21T12:56:10.489Z,72.92
2023-03-21T12:58:44.749Z,73.46
2023-03-21T13:01:12.150Z,71.74
2023-03-21T13:03:43.938Z,71.07
2023-03-21T13:06:11.186Z,71.69
2023-03-21T13:08:38.861Z,70.88
2023-03-21T13:11:05.369Z,70.44
2023-03-21T13:13:35.498Z,69.87
2023-03-21T13:16:11.078Z,71.27
2023-03-21T13:18:45.872Z,70.80
2023-03-21T13:21:17.838Z,71.60
2023-03-21T13:23:41.773Z,69.94
2023-03-21T13:26:12.520Z,70.75
2023-03-21T13:28:39.951Z,71.21
2023-03-21T13:31:20.775Z,71.07
2023-03-21T13:33:47.292Z,70.71
2023-03-21T13:36:15.266Z,71.31
2023-03-21T13:38:40.251Z,72.20
2023-03-21T13:41:11.060Z,72.05
2023-03-21T13:43:43.419Z,71.97
2023-03-21T13:46:10.164Z,72.88
2023-03-21T13:48:49.419Z,72.51
2023-03-21T13:51:39.849Z,73.12
2023-03-21T13:54:06.635Z,72.26
2023-03-21T13:56:51.049Z,72.30
2023-03-21T13:59:19.848Z,71.72
2023-03-21T14:01:59.843Z,71.30
2023-03-21T14:04:36.932Z,73.23
2023-03-21T14:07:13.015Z,73.27
2023-03-21T14:09:40.825Z,74.61
2023-03-21T14:12:13.491Z,75.11
2023-03-21T14:14:43.689Z,76.38
2023-03-21T14:17:14.362Z,76.96
2023-03-21T14:19:38.803Z,76.75
2023-03-21T14:22:05.019Z,75.22
2023-03-21T14:24:28.857Z,76.68
2023-03-21T14:26:55.641Z,75.02
2023-03-21T14:29:29.493Z,73.46
2023-03-21T14:31:56.645Z,73.62
2023-03-21T14:34:21.635Z,73.47
2023-03-21T14:36:56.853Z,73.27
2023-03-21T14:39:24.777Z,74.51
2023-03-21T14:41:51.109Z,73.47
2023-03-21T14:44:28.910Z,73.77
2023-03-21T14:46:54.933Z,74.84
2023-03-21T14:49:29.714Z,73.52
2023-03-21T14:51:57.794Z,74.49
2023-03-21T14:54:22.133Z,74.09
2023-03-21T14:56:49.010Z,73.74
2023-03-21T14:59:16.581Z,73.52
2023-03-21T15:01:42.551Z,73.44
2023-03-21T15:04:07.929Z,74.42
2023-03-21T15:06:32.409Z,72.96
2023-03-21T15:08:57.577Z,73.70
2023-03-21T15:11:30.783Z,74.17
2023-03-21T15:13:57.009Z,74.63
2023-03-21T15:16:22.149Z,74.37
2023-03-21T15:18:47.617Z,75.08
2023-03-21T15:21:17.375Z,75.82
2023-03-21T15:23:44.771Z,76.78
2023-03-21T15:26:08.940Z,76.44
2023-03-21T15:28:34.716Z,76.00
2023-03-21T15:30:58.711Z,74.96
2023-03-21T15:33:25.150Z,76.57
2023-03-21T15:35:55.750Z,75.42
2023-03-21T15:38:30.105Z,76.15
2023-03-21T15:41:17.775Z,74.73
2023-03-21T15:43:42.339Z,74.96
2023-03-21T15:46:16.158Z,75.26
2023-03-21T15:48:39.955Z,74.98
2023-03-21T15:51:08.022Z,74.96
2023-03-21T15:53:36.207Z,74.28
2023-03-21T15:56:02.069Z,74.21
2023-03-21T15:58:28.796Z,75.34
2023-03-21T16:00:55.665Z,74.89
2023-03-21T16:03:25.297Z,74.17
2023-03-21T16:06:10.145Z,74.49
2023-03-21T16:08:37.437Z,74.27
2023-03-21T16:11:10.082Z,74.05
2023-03-21T16:13:33.902Z,74.13
2023-03-21T16:15:57.590Z,74.46
2023-03-21T16:18:21.354Z,73.34
2023-03-21T16:20:46.821Z,73.39
2023-03-21T16:23:13.148Z,73.37
2023-03-21T16:25:36.844Z,74.88
2023-03-21T16:28:00.881Z,74.42
2023-03-21T16:30:25.129Z,76.31
2023-03-21T16:32:49.939Z,75.16
2023-03-21T16:35:13.936Z,75.59
2023-03-21T16:37:37.709Z,75.44
2023-03-21T16:40:05.821Z,76.37
2023-03-21T16:42:29.596Z,77.47
2023-03-21T16:44:53.411Z,76.63
2023-03-21T16:47:19.648Z,75.63
2023-03-21T16:49:43.338Z,76.15
2023-03-21T16:52:07.398Z,77.02
2023-03-21T16:54:31.053Z,75.57
2023-03-21T16:56:59.150Z,75.20
2023-03-21T16:59:23.626Z,75.35
2023-03-21T17:01:48.586Z,74.87
2023-03-21T17:04:12.601Z,75.90
2023-03-21T17:06:45.604Z,75.51
2023-03-21T17:09:11.808Z,74.68
2023-03-21T17:11:37.500Z,75.58
2023-03-21T17:14:03.046Z,74.88
2023-03-21T17:16:27.634Z,76.10
2023-03-21T17:18:52.456Z,74.46
2023-03-21T17:21:19.125Z,74.30
2023-03-21T17:23:43.040Z,75.07
2023-03-21T17:26:09.740Z,74.44
2023-03-21T17:28:33.534Z,74.10
2023-03-21T17:30:58.890Z,74.38
2023-03-21T17:33:22.626Z,74.29
2023-03-21T17:35:46.397Z,75.10
2023-03-21T17:38:17.294Z,74.14
2023-03-21T17:40:41.407Z,74.01
2023-03-21T17:43:07.572Z,74.77
2023-03-21T17:45:31.413Z,74.13
2023-03-21T17:47:56.523Z,74.96
2023-03-21T17:50:23.560Z,74.06
2023-03-21T17:52:49.665Z,74.97
2023-03-21T17:55:16.213Z,74.48
2023-03-21T17:57:39.973Z,74.31
2023-03-21T18:00:11.739Z,75.54
2023-03-21T18:02:35.542Z,75.89
2023-03-21T18:05:00.610Z,75.71
2023-03-21T18:07:54.410Z,75.88
2023-03-21T18:10:10.853Z,75.64
2023-03-21T18:12:34.467Z,76.06
2023-03-21T18:14:59.083Z,76.51
2023-03-21T18:17:22.828Z,75.79
2023-03-21T18:19:47.782Z,75.68
2023-03-21T18:22:12.931Z,77.46
2023-03-21T18:24:37.210Z,76.40
2023-03-21T18:27:01.019Z,75.93
2023-03-21T18:32:09.514Z,75.25
2023-03-21T18:34:33.360Z,76.05
2023-03-21T18:36:57.138Z,75.97
2023-03-21T18:39:22.665Z,76.34
2023-03-21T18:41:46.791Z,75.64
2023-03-21T18:44:19.761Z,75.29
2023-03-21T18:46:48.253Z,75.26
2023-03-21T18:49:52.097Z,76.34
2023-03-21T18:51:55.785Z,78.38
2023-03-21T18:54:19.449Z,78.19
2023-03-21T18:57:31.718Z,78.61
2023-03-21T18:59:29.351Z,77.71
2023-03-21T19:01:53.211Z,78.11
2023-03-21T19:04:25.506Z,77.31
2023-03-21T19:06:53.201Z,77.88
2023-03-21T19:09:18.129Z,78.50
2023-03-21T19:11:43.940Z,77.40
2023-03-21T19:14:07.657Z,77.32
2023-03-21T19:16:45.371Z,77.68
2023-03-21T19:19:18.518Z,77.37
2023-03-21T19:21:42.253Z,78.08
2023-03-21T19:24:26.552Z,78.59
2023-03-21T19:26:52.117Z,81.95
2023-03-21T19:29:16.624Z,82.44
2023-03-21T19:31:40.431Z,81.75
2023-03-21T19:34:04.698Z,82.46
2023-03-21T19:36:28.706Z,83.89
2023-03-21T19:38:52.895Z,82.75
2023-03-21T19:41:16.757Z,85.31
2023-03-21T19:43:52.847Z,84.73
2023-03-21T19:46:20.061Z,85.25
2023-03-21T19:48:44.891Z,84.39
2023-03-21T19:51:28.645Z,83.55
2023-03-21T19:53:53.935Z,86.23
2023-03-21T19:56:22.358Z,86.27
2023-03-21T19:58:48.956Z,84.24
2023-03-21T20:01:12.855Z,84.57
2023-03-21T20:03:37.835Z,86.12
2023-03-21T20:06:07.879Z,86.61
2023-03-21T20:08:43.273Z,86.13
2023-03-21T20:11:15.752Z,86.39
2023-03-21T20:13:40.678Z,87.97
2023-03-21T20:16:07.316Z,88.47
2023-03-21T20:18:34.930Z,89.12
2023-03-21T20:20:58.638Z,92.02
2023-03-21T20:23:23.400Z,90.07
2023-03-21T20:25:48.278Z,87.96
2023-03-21T20:28:17.265Z,88.72
2023-03-21T20:30:50.544Z,86.50
2023-03-21T20:33:15.778Z,86.98
2023-03-21T20:36:22.849Z,85.85
2023-03-21T20:38:25.060Z,85.14
2023-03-21T20:40:49.037Z,87.90
2023-03-21T20:43:54.388Z,91.01
2023-03-21T20:46:02.950Z,91.63
2023-03-21T20:48:29.888Z,91.80
2023-03-21T20:50:57.862Z,92.36
2023-03-21T20:53:25.353Z,92.62
2023-03-21T20:55:49.814Z,93.44
2023-03-21T20:58:36.794Z,90.94
2023-03-21T21:01:03.837Z,95.24
2023-03-21T21:03:29.030Z,95.30
2023-03-21T21:05:53.793Z,94.43
2023-03-21T21:08:19.358Z,94.78
2023-03-21T21:11:14.949Z,91.47
2023-03-21T21:13:29.033Z,93.54
2023-03-21T21:15:54.341Z,92.08
2023-03-21T21:18:18.473Z,91.77
2023-03-21T21:20:43.670Z,90.94
2023-03-21T21:23:09.513Z,92.13
2023-03-21T21:25:34.866Z,88.61
2023-03-21T21:27:58.735Z,92.08
2023-03-21T21:30:22.999Z,92.52
2023-03-21T21:32:46.720Z,92.80
2023-03-21T21:35:11.173Z,92.22
2023-03-21T21:37:36.300Z,93.48
2023-03-21T21:40:00.105Z,90.65
2023-03-21T21:42:23.853Z,89.45
2023-03-21T21:44:47.567Z,88.73
2023-03-21T21:47:11.398Z,89.55
2023-03-21T21:49:35.368Z,87.24
2023-03-21T21:52:00.007Z,87.19
2023-03-21T21:54:26.073Z,88.78
2023-03-21T21:56:54.151Z,86.86
2023-03-21T21:59:18.081Z,86.71
2023-03-21T22:04:08.473Z,86.86
2023-03-21T22:06:32.365Z,86.49
2023-03-21T22:08:56.944Z,88.31
2023-03-21T22:11:22.150Z,91.45
2023-03-21T22:13:46.807Z,89.01
2023-03-21T22:16:11.641Z,89.09
2023-03-21T22:18:38.627Z,88.41
2023-03-21T22:21:04.149Z,86.33
2023-03-21T22:23:28.080Z,89.16
2023-03-21T22:25:52.713Z,90.39
2023-03-21T22:28:18.029Z,91.83
2023-03-21T22:30:41.973Z,93.34
2023-03-21T22:33:09.561Z,91.52
2023-03-21T22:35:33.955Z,92.90
2023-03-21T22:37:57.698Z,93.25
2023-03-21T22:40:21.699Z,92.06
2023-03-21T22:42:45.710Z,91.01
2023-03-21T22:45:13.796Z,88.58
2023-03-21T22:47:37.863Z,88.11
2023-03-21T22:50:01.618Z,88.34
2023-03-21T22:52:25.554Z,88.42
2023-03-21T22:54:49.873Z,87.34
2023-03-21T22:57:14.279Z,91.14
2023-03-21T22:59:38.063Z,90.47
2023-03-21T23:02:03.166Z,91.31
2023-03-21T23:04:28.062Z,90.68
2023-03-21T23:06:52.067Z,92.95
2023-03-21T23:09:16.146Z,91.73
2023-03-21T23:11:40.467Z,91.08
2023-03-21T23:14:08.049Z,92.93
2023-03-21T23:18:59.016Z,89.91
2023-03-21T23:21:23.960Z,91.83
2023-03-21T23:23:49.874Z,91.63
2023-03-21T23:26:13.963Z,89.94
2023-03-21T23:28:38.031Z,89.50
2023-03-21T23:31:01.927Z,90.83
2023-03-21T23:33:25.790Z,90.74
2023-03-21T23:35:51.235Z,90.56
2023-03-21T23:38:15.074Z,89.89
2023-03-21T23:40:40.792Z,89.33
2023-03-21T23:43:04.886Z,90.78
2023-03-21T23:45:28.640Z,90.26
2023-03-21T23:47:52.465Z,90.64
2023-03-21T23:50:16.226Z,90.48
2023-03-21T23:52:42.226Z,92.80
2023-03-21T23:55:06.787Z,92.05
2023-03-21T23:57:30.639Z,92.18
2023-03-21T23:59:56.281Z,91.92
